sensor_id;sensor_type;location;lat;lon;timestamp;P1;durP1;ratioP1;P2;durP2;ratioP2
17830;SDS011;9040;51.332;12.406;2022-09-13T00:01:53;7.60;;;6.67;;
17830;SDS011;9040;51.332;12.406;2022-09-13T00:04:19;11.77;;;7.57;;
17830;SDS011;9040;51.332;12.406;2022-09-13T00:06:46;9.60;;;7.30;;
17830;SDS011;9040;51.332;12.406;2022-09-13T00:09:13;11.80;;;8.20;;
17830;SDS011;9040;51.332;12.406;2022-09-13T00:11:40;7.93;;;7.07;;
17830;SDS011;9040;51.332;12.406;2022-09-13T00:14:07;7.57;;;6.77;;
17830;SDS011;9040;51.332;12.406;2022-09-13T00:16:33;13.20;;;6.93;;
17830;SDS011;9040;51.332;12.406;2022-09-13T00:19:02;6.23;;;5.70;;
17830;SDS011;9040;51.332;12.406;2022-09-13T00:21:29;9.87;;;6.97;;
17830;SDS011;9040;51.332;12.406;2022-09-13T00:23:56;6.80;;;6.10;;
17830;SDS011;9040;51.332;12.406;2022-09-13T00:26:24;9.77;;;6.00;;
17830;SDS011;9040;51.332;12.406;2022-09-13T00:28:53;9.70;;;7.43;;
17830;SDS011;9040;51.332;12.406;2022-09-13T00:31:21;10.23;;;6.70;;
17830;SDS011;9040;51.332;12.406;2022-09-13T00:33:50;12.30;;;7.43;;
17830;SDS011;9040;51.332;12.406;2022-09-13T00:36:19;8.40;;;7.43;;
17830;SDS011;9040;51.332;12.406;2022-09-13T00:38:46;11.27;;;7.10;;
17830;SDS011;9040;51.332;12.406;2022-09-13T00:41:13;10.23;;;6.77;;
17830;SDS011;9040;51.332;12.406;2022-09-13T00:43:43;8.70;;;5.93;;
17830;SDS011;9040;51.332;12.406;2022-09-13T00:46:14;8.00;;;5.80;;
17830;SDS011;9040;51.332;12.406;2022-09-13T00:48:46;9.10;;;6.90;;
17830;SDS011;9040;51.332;12.406;2022-09-13T00:51:14;7.10;;;6.13;;
17830;SDS011;9040;51.332;12.406;2022-09-13T00:53:43;8.47;;;6.33;;
17830;SDS011;9040;51.332;12.406;2022-09-13T00:56:14;9.07;;;5.60;;
17830;SDS011;9040;51.332;12.406;2022-09-13T00:58:45;10.10;;;7.33;;
17830;SDS011;9040;51.332;12.406;2022-09-13T01:01:16;14.50;;;6.07;;
17830;SDS011;9040;51.332;12.406;2022-09-13T01:03:46;10.67;;;7.60;;
17830;SDS011;9040;51.332;12.406;2022-09-13T01:06:14;11.00;;;6.90;;
17830;SDS011;9040;51.332;12.406;2022-09-13T01:08:46;13.10;;;7.30;;
17830;SDS011;9040;51.332;12.406;2022-09-13T01:11:18;8.03;;;6.13;;
17830;SDS011;9040;51.332;12.406;2022-09-13T01:13:51;6.43;;;5.83;;
17830;SDS011;9040;51.332;12.406;2022-09-13T01:16:19;8.20;;;6.03;;
17830;SDS011;9040;51.332;12.406;2022-09-13T01:18:46;13.60;;;5.80;;
17830;SDS011;9040;51.332;12.406;2022-09-13T01:24:46;8.93;;;6.57;;
17830;SDS011;9040;51.332;12.406;2022-09-13T01:27:35;20.10;;;6.17;;
17830;SDS011;9040;51.332;12.406;2022-09-13T01:30:09;8.13;;;6.83;;
17830;SDS011;9040;51.332;12.406;2022-09-13T01:32:45;7.83;;;6.33;;
17830;SDS011;9040;51.332;12.406;2022-09-13T01:35:37;7.97;;;5.93;;
17830;SDS011;9040;51.332;12.406;2022-09-13T01:38:15;12.90;;;6.30;;
17830;SDS011;9040;51.332;12.406;2022-09-13T01:40:55;11.30;;;6.70;;
17830;SDS011;9040;51.332;12.406;2022-09-13T01:43:35;6.57;;;5.17;;
17830;SDS011;9040;51.332;12.406;2022-09-13T01:46:16;8.00;;;6.80;;
17830;SDS011;9040;51.332;12.406;2022-09-13T01:48:54;7.53;;;6.67;;
17830;SDS011;9040;51.332;12.406;2022-09-13T01:51:27;8.60;;;7.50;;
17830;SDS011;9040;51.332;12.406;2022-09-13T01:54:03;9.30;;;6.97;;
17830;SDS011;9040;51.332;12.406;2022-09-13T01:56:38;9.07;;;6.70;;
17830;SDS011;9040;51.332;12.406;2022-09-13T01:59:10;7.30;;;6.40;;
17830;SDS011;9040;51.332;12.406;2022-09-13T02:01:43;8.30;;;6.50;;
17830;SDS011;9040;51.332;12.406;2022-09-13T02:04:16;6.40;;;5.37;;
17830;SDS011;9040;51.332;12.406;2022-09-13T02:06:49;10.93;;;6.07;;
17830;SDS011;9040;51.332;12.406;2022-09-13T02:09:23;11.63;;;6.27;;
17830;SDS011;9040;51.332;12.406;2022-09-13T02:11:53;11.80;;;6.70;;
17830;SDS011;9040;51.332;12.406;2022-09-13T02:14:28;19.63;;;6.17;;
17830;SDS011;9040;51.332;12.406;2022-09-13T02:17:01;13.10;;;6.83;;
17830;SDS011;9040;51.332;12.406;2022-09-13T02:19:34;6.90;;;5.53;;
17830;SDS011;9040;51.332;12.406;2022-09-13T02:22:04;10.20;;;5.90;;
17830;SDS011;9040;51.332;12.406;2022-09-13T02:24:34;13.17;;;5.70;;
17830;SDS011;9040;51.332;12.406;2022-09-13T02:27:05;9.40;;;5.77;;
17830;SDS011;9040;51.332;12.406;2022-09-13T02:29:35;7.73;;;6.47;;
17830;SDS011;9040;51.332;12.406;2022-09-13T02:32:08;11.43;;;5.10;;
17830;SDS011;9040;51.332;12.406;2022-09-13T02:34:38;10.67;;;6.00;;
17830;SDS011;9040;51.332;12.406;2022-09-13T02:37:08;8.17;;;6.63;;
17830;SDS011;9040;51.332;12.406;2022-09-13T02:39:39;6.97;;;5.97;;
17830;SDS011;9040;51.332;12.406;2022-09-13T02:42:11;15.50;;;6.53;;
17830;SDS011;9040;51.332;12.406;2022-09-13T02:44:43;6.83;;;5.90;;
17830;SDS011;9040;51.332;12.406;2022-09-13T02:50:02;10.60;;;6.10;;
17830;SDS011;9040;51.332;12.406;2022-09-13T02:52:41;9.47;;;5.77;;
17830;SDS011;9040;51.332;12.406;2022-09-13T02:55:17;8.20;;;6.70;;
17830;SDS011;9040;51.332;12.406;2022-09-13T02:57:52;15.33;;;7.33;;
17830;SDS011;9040;51.332;12.406;2022-09-13T03:00:26;8.77;;;6.27;;
17830;SDS011;9040;51.332;12.406;2022-09-13T03:02:55;11.37;;;6.60;;
17830;SDS011;9040;51.332;12.406;2022-09-13T03:05:24;10.37;;;5.33;;
17830;SDS011;9040;51.332;12.406;2022-09-13T03:07:51;8.37;;;6.03;;
17830;SDS011;9040;51.332;12.406;2022-09-13T03:10:20;9.20;;;6.37;;
17830;SDS011;9040;51.332;12.406;2022-09-13T03:15:42;7.53;;;6.37;;
17830;SDS011;9040;51.332;12.406;2022-09-13T03:18:22;19.60;;;6.80;;
17830;SDS011;9040;51.332;12.406;2022-09-13T03:21:04;10.10;;;5.90;;
17830;SDS011;9040;51.332;12.406;2022-09-13T03:23:40;12.93;;;7.00;;
17830;SDS011;9040;51.332;12.406;2022-09-13T03:26:22;9.50;;;6.17;;
17830;SDS011;9040;51.332;12.406;2022-09-13T03:29:09;8.87;;;7.40;;
17830;SDS011;9040;51.332;12.406;2022-09-13T03:31:49;11.43;;;6.50;;
17830;SDS011;9040;51.332;12.406;2022-09-13T03:34:24;10.40;;;6.53;;
17830;SDS011;9040;51.332;12.406;2022-09-13T03:37:02;9.53;;;5.60;;
17830;SDS011;9040;51.332;12.406;2022-09-13T03:39:34;9.03;;;7.50;;
17830;SDS011;9040;51.332;12.406;2022-09-13T03:42:09;9.10;;;6.07;;
17830;SDS011;9040;51.332;12.406;2022-09-13T03:44:41;7.07;;;6.37;;
17830;SDS011;9040;51.332;12.406;2022-09-13T03:47:11;11.63;;;7.17;;
17830;SDS011;9040;51.332;12.406;2022-09-13T03:49:40;9.63;;;6.77;;
17830;SDS011;9040;51.332;12.406;2022-09-13T03:52:08;10.53;;;6.17;;
17830;SDS011;9040;51.332;12.406;2022-09-13T03:54:36;10.80;;;7.47;;
17830;SDS011;9040;51.332;12.406;2022-09-13T03:57:10;8.10;;;6.47;;
17830;SDS011;9040;51.332;12.406;2022-09-13T03:59:40;8.43;;;6.80;;
17830;SDS011;9040;51.332;12.406;2022-09-13T04:02:11;15.20;;;6.60;;
17830;SDS011;9040;51.332;12.406;2022-09-13T04:04:38;7.27;;;6.57;;
17830;SDS011;9040;51.332;12.406;2022-09-13T04:07:08;14.47;;;8.30;;
17830;SDS011;9040;51.332;12.406;2022-09-13T04:09:35;11.30;;;7.20;;
17830;SDS011;9040;51.332;12.406;2022-09-13T04:12:02;9.07;;;6.53;;
17830;SDS011;9040;51.332;12.406;2022-09-13T04:14:30;8.27;;;6.90;;
17830;SDS011;9040;51.332;12.406;2022-09-13T04:16:57;16.60;;;7.10;;
17830;SDS011;9040;51.332;12.406;2022-09-13T04:19:24;6.93;;;6.23;;
17830;SDS011;9040;51.332;12.406;2022-09-13T04:21:51;30.50;;;8.30;;
17830;SDS011;9040;51.332;12.406;2022-09-13T04:24:23;11.83;;;7.07;;
17830;SDS011;9040;51.332;12.406;2022-09-13T04:26:51;11.30;;;6.23;;
17830;SDS011;9040;51.332;12.406;2022-09-13T04:29:18;12.90;;;8.50;;
17830;SDS011;9040;51.332;12.406;2022-09-13T04:31:47;9.63;;;6.97;;
17830;SDS011;9040;51.332;12.406;2022-09-13T04:34:15;16.83;;;7.53;;
17830;SDS011;9040;51.332;12.406;2022-09-13T04:36:42;11.17;;;8.00;;
17830;SDS011;9040;51.332;12.406;2022-09-13T04:39:10;10.77;;;6.80;;
17830;SDS011;9040;51.332;12.406;2022-09-13T04:41:39;8.73;;;7.00;;
17830;SDS011;9040;51.332;12.406;2022-09-13T04:44:10;11.03;;;7.30;;
17830;SDS011;9040;51.332;12.406;2022-09-13T04:46:36;11.20;;;6.87;;
17830;SDS011;9040;51.332;12.406;2022-09-13T04:49:03;19.70;;;8.07;;
17830;SDS011;9040;51.332;12.406;2022-09-13T04:51:30;9.77;;;7.87;;
17830;SDS011;9040;51.332;12.406;2022-09-13T04:53:57;9.53;;;7.03;;
17830;SDS011;9040;51.332;12.406;2022-09-13T04:56:24;9.70;;;7.07;;
17830;SDS011;9040;51.332;12.406;2022-09-13T04:58:53;12.73;;;9.07;;
17830;SDS011;9040;51.332;12.406;2022-09-13T05:01:21;15.47;;;6.90;;
17830;SDS011;9040;51.332;12.406;2022-09-13T05:03:49;8.00;;;6.20;;
17830;SDS011;9040;51.332;12.406;2022-09-13T05:06:17;8.83;;;7.50;;
17830;SDS011;9040;51.332;12.406;2022-09-13T05:08:48;8.00;;;6.87;;
17830;SDS011;9040;51.332;12.406;2022-09-13T05:11:17;12.20;;;8.30;;
17830;SDS011;9040;51.332;12.406;2022-09-13T05:13:47;9.17;;;6.67;;
17830;SDS011;9040;51.332;12.406;2022-09-13T05:16:18;11.03;;;8.30;;
17830;SDS011;9040;51.332;12.406;2022-09-13T05:18:45;13.87;;;8.47;;
17830;SDS011;9040;51.332;12.406;2022-09-13T05:21:12;21.23;;;8.37;;
17830;SDS011;9040;51.332;12.406;2022-09-13T05:23:39;13.13;;;8.00;;
17830;SDS011;9040;51.332;12.406;2022-09-13T05:26:06;14.13;;;8.57;;
17830;SDS011;9040;51.332;12.406;2022-09-13T05:28:34;16.40;;;8.93;;
17830;SDS011;9040;51.332;12.406;2022-09-13T05:31:02;13.30;;;8.10;;
17830;SDS011;9040;51.332;12.406;2022-09-13T05:33:32;13.03;;;9.03;;
17830;SDS011;9040;51.332;12.406;2022-09-13T05:36:01;10.87;;;8.17;;
17830;SDS011;9040;51.332;12.406;2022-09-13T05:38:28;16.07;;;8.50;;
17830;SDS011;9040;51.332;12.406;2022-09-13T05:40:55;10.23;;;7.90;;
17830;SDS011;9040;51.332;12.406;2022-09-13T05:43:23;10.93;;;7.70;;
17830;SDS011;9040;51.332;12.406;2022-09-13T05:45:50;14.87;;;8.20;;
17830;SDS011;9040;51.332;12.406;2022-09-13T05:48:17;14.87;;;8.63;;
17830;SDS011;9040;51.332;12.406;2022-09-13T05:50:45;11.77;;;8.60;;
17830;SDS011;9040;51.332;12.406;2022-09-13T05:53:12;13.33;;;8.40;;
17830;SDS011;9040;51.332;12.406;2022-09-13T05:55:39;10.57;;;7.73;;
17830;SDS011;9040;51.332;12.406;2022-09-13T05:58:06;11.83;;;8.37;;
17830;SDS011;9040;51.332;12.406;2022-09-13T06:00:33;12.80;;;8.23;;
17830;SDS011;9040;51.332;12.406;2022-09-13T06:02:59;16.33;;;8.43;;
17830;SDS011;9040;51.332;12.406;2022-09-13T06:05:26;7.90;;;6.80;;
17830;SDS011;9040;51.332;12.406;2022-09-13T06:07:54;14.57;;;9.23;;
17830;SDS011;9040;51.332;12.406;2022-09-13T06:10:21;11.83;;;8.50;;
17830;SDS011;9040;51.332;12.406;2022-09-13T06:12:49;16.43;;;10.13;;
17830;SDS011;9040;51.332;12.406;2022-09-13T06:15:16;10.90;;;7.40;;
17830;SDS011;9040;51.332;12.406;2022-09-13T06:17:43;13.80;;;8.30;;
17830;SDS011;9040;51.332;12.406;2022-09-13T06:20:09;13.60;;;8.43;;
17830;SDS011;9040;51.332;12.406;2022-09-13T06:22:36;9.47;;;7.40;;
17830;SDS011;9040;51.332;12.406;2022-09-13T06:25:05;16.80;;;7.90;;
17830;SDS011;9040;51.332;12.406;2022-09-13T06:27:33;10.40;;;7.43;;
17830;SDS011;9040;51.332;12.406;2022-09-13T06:30:00;11.47;;;8.13;;
17830;SDS011;9040;51.332;12.406;2022-09-13T06:32:27;13.03;;;9.07;;
17830;SDS011;9040;51.332;12.406;2022-09-13T06:34:53;8.90;;;7.83;;
17830;SDS011;9040;51.332;12.406;2022-09-13T06:37:20;13.60;;;9.53;;
17830;SDS011;9040;51.332;12.406;2022-09-13T06:39:47;21.30;;;9.23;;
17830;SDS011;9040;51.332;12.406;2022-09-13T06:42:15;11.33;;;8.70;;
17830;SDS011;9040;51.332;12.406;2022-09-13T06:44:42;13.57;;;8.97;;
17830;SDS011;9040;51.332;12.406;2022-09-13T06:47:10;11.30;;;7.90;;
17830;SDS011;9040;51.332;12.406;2022-09-13T06:49:37;11.67;;;9.07;;
17830;SDS011;9040;51.332;12.406;2022-09-13T06:52:04;14.30;;;9.20;;
17830;SDS011;9040;51.332;12.406;2022-09-13T06:54:31;11.77;;;8.60;;
17830;SDS011;9040;51.332;12.406;2022-09-13T06:56:58;10.80;;;8.70;;
17830;SDS011;9040;51.332;12.406;2022-09-13T06:59:28;12.57;;;9.70;;
17830;SDS011;9040;51.332;12.406;2022-09-13T07:01:55;15.03;;;8.13;;
17830;SDS011;9040;51.332;12.406;2022-09-13T07:04:22;19.50;;;9.30;;
17830;SDS011;9040;51.332;12.406;2022-09-13T07:06:48;14.37;;;10.70;;
17830;SDS011;9040;51.332;12.406;2022-09-13T07:09:16;17.67;;;10.17;;
17830;SDS011;9040;51.332;12.406;2022-09-13T07:11:45;15.10;;;10.33;;
17830;SDS011;9040;51.332;12.406;2022-09-13T07:14:13;13.50;;;9.57;;
17830;SDS011;9040;51.332;12.406;2022-09-13T07:16:43;19.70;;;9.70;;
17830;SDS011;9040;51.332;12.406;2022-09-13T07:19:11;26.93;;;12.07;;
17830;SDS011;9040;51.332;12.406;2022-09-13T07:21:39;14.33;;;10.23;;
17830;SDS011;9040;51.332;12.406;2022-09-13T07:24:06;13.93;;;9.50;;
17830;SDS011;9040;51.332;12.406;2022-09-13T07:26:33;16.47;;;10.40;;
17830;SDS011;9040;51.332;12.406;2022-09-13T07:29:03;16.80;;;10.70;;
17830;SDS011;9040;51.332;12.406;2022-09-13T07:31:33;16.77;;;10.50;;
17830;SDS011;9040;51.332;12.406;2022-09-13T07:34:03;22.33;;;12.80;;
17830;SDS011;9040;51.332;12.406;2022-09-13T07:36:34;21.93;;;16.70;;
17830;SDS011;9040;51.332;12.406;2022-09-13T07:39:02;23.87;;;13.37;;
17830;SDS011;9040;51.332;12.406;2022-09-13T07:41:30;14.07;;;10.37;;
17830;SDS011;9040;51.332;12.406;2022-09-13T07:43:58;20.37;;;12.60;;
17830;SDS011;9040;51.332;12.406;2022-09-13T07:46:26;20.80;;;10.50;;
17830;SDS011;9040;51.332;12.406;2022-09-13T07:48:56;13.07;;;10.17;;
17830;SDS011;9040;51.332;12.406;2022-09-13T07:51:26;14.60;;;10.90;;
17830;SDS011;9040;51.332;12.406;2022-09-13T07:53:55;9.90;;;8.63;;
17830;SDS011;9040;51.332;12.406;2022-09-13T07:56:23;11.90;;;9.73;;
17830;SDS011;9040;51.332;12.406;2022-09-13T07:58:52;15.73;;;9.90;;
17830;SDS011;9040;51.332;12.406;2022-09-13T08:01:20;10.43;;;8.50;;
17830;SDS011;9040;51.332;12.406;2022-09-13T08:03:52;15.40;;;9.67;;
17830;SDS011;9040;51.332;12.406;2022-09-13T08:06:20;13.40;;;9.47;;
17830;SDS011;9040;51.332;12.406;2022-09-13T08:08:49;16.00;;;10.40;;
17830;SDS011;9040;51.332;12.406;2022-09-13T08:11:17;13.30;;;8.50;;
17830;SDS011;9040;51.332;12.406;2022-09-13T08:13:46;19.07;;;10.83;;
17830;SDS011;9040;51.332;12.406;2022-09-13T08:16:13;14.43;;;9.03;;
17830;SDS011;9040;51.332;12.406;2022-09-13T08:18:42;12.57;;;9.20;;
17830;SDS011;9040;51.332;12.406;2022-09-13T08:21:10;12.80;;;9.90;;
17830;SDS011;9040;51.332;12.406;2022-09-13T08:23:37;12.13;;;8.67;;
17830;SDS011;9040;51.332;12.406;2022-09-13T08:26:06;13.50;;;8.30;;
17830;SDS011;9040;51.332;12.406;2022-09-13T08:28:33;17.97;;;9.63;;
17830;SDS011;9040;51.332;12.406;2022-09-13T08:31:04;10.63;;;8.70;;
17830;SDS011;9040;51.332;12.406;2022-09-13T08:33:31;21.73;;;8.40;;
17830;SDS011;9040;51.332;12.406;2022-09-13T08:35:58;10.83;;;9.63;;
17830;SDS011;9040;51.332;12.406;2022-09-13T08:38:26;15.90;;;7.80;;
17830;SDS011;9040;51.332;12.406;2022-09-13T08:40:54;14.43;;;8.40;;
17830;SDS011;9040;51.332;12.406;2022-09-13T08:43:31;21.53;;;9.87;;
17830;SDS011;9040;51.332;12.406;2022-09-13T08:46:09;14.43;;;8.13;;
17830;SDS011;9040;51.332;12.406;2022-09-13T08:48:42;14.90;;;9.43;;
17830;SDS011;9040;51.332;12.406;2022-09-13T08:51:22;10.70;;;8.53;;
17830;SDS011;9040;51.332;12.406;2022-09-13T08:53:54;12.30;;;8.00;;
17830;SDS011;9040;51.332;12.406;2022-09-13T08:56:22;11.60;;;9.47;;
17830;SDS011;9040;51.332;12.406;2022-09-13T09:01:49;11.40;;;9.10;;
17830;SDS011;9040;51.332;12.406;2022-09-13T09:04:29;8.77;;;7.90;;
17830;SDS011;9040;51.332;12.406;2022-09-13T09:07:05;13.63;;;8.97;;
17830;SDS011;9040;51.332;12.406;2022-09-13T09:09:39;9.83;;;7.50;;
17830;SDS011;9040;51.332;12.406;2022-09-13T09:12:12;11.13;;;8.90;;
17830;SDS011;9040;51.332;12.406;2022-09-13T09:14:44;14.30;;;9.23;;
17830;SDS011;9040;51.332;12.406;2022-09-13T09:17:24;16.37;;;9.33;;
17830;SDS011;9040;51.332;12.406;2022-09-13T09:19:57;12.90;;;8.20;;
17830;SDS011;9040;51.332;12.406;2022-09-13T09:22:34;13.57;;;7.83;;
17830;SDS011;9040;51.332;12.406;2022-09-13T09:25:01;11.50;;;7.63;;
17830;SDS011;9040;51.332;12.406;2022-09-13T09:27:29;11.97;;;8.43;;
17830;SDS011;9040;51.332;12.406;2022-09-13T09:29:58;11.63;;;7.67;;
17830;SDS011;9040;51.332;12.406;2022-09-13T09:32:40;8.63;;;6.93;;
17830;SDS011;9040;51.332;12.406;2022-09-13T09:35:24;15.53;;;9.30;;
17830;SDS011;9040;51.332;12.406;2022-09-13T09:38:06;11.20;;;8.40;;
17830;SDS011;9040;51.332;12.406;2022-09-13T09:40:46;21.43;;;6.67;;
17830;SDS011;9040;51.332;12.406;2022-09-13T09:43:14;10.97;;;6.53;;
17830;SDS011;9040;51.332;12.406;2022-09-13T09:45:46;9.60;;;7.70;;
17830;SDS011;9040;51.332;12.406;2022-09-13T09:48:15;14.10;;;8.30;;
17830;SDS011;9040;51.332;12.406;2022-09-13T09:50:46;8.20;;;6.60;;
17830;SDS011;9040;51.332;12.406;2022-09-13T09:53:17;18.73;;;7.10;;
17830;SDS011;9040;51.332;12.406;2022-09-13T09:55:51;8.03;;;6.17;;
17830;SDS011;9040;51.332;12.406;2022-09-13T09:58:35;8.70;;;6.40;;
17830;SDS011;9040;51.332;12.406;2022-09-13T10:01:04;18.40;;;5.93;;
17830;SDS011;9040;51.332;12.406;2022-09-13T10:03:40;9.10;;;6.10;;
17830;SDS011;9040;51.332;12.406;2022-09-13T10:06:07;8.33;;;5.73;;
17830;SDS011;9040;51.332;12.406;2022-09-13T10:08:39;7.40;;;5.03;;
17830;SDS011;9040;51.332;12.406;2022-09-13T10:11:07;5.30;;;4.77;;
17830;SDS011;9040;51.332;12.406;2022-09-13T10:13:35;6.67;;;4.73;;
17830;SDS011;9040;51.332;12.406;2022-09-13T10:16:02;7.63;;;4.40;;
17830;SDS011;9040;51.332;12.406;2022-09-13T10:18:40;8.50;;;4.43;;
17830;SDS011;9040;51.332;12.406;2022-09-13T10:21:09;9.50;;;5.37;;
17830;SDS011;9040;51.332;12.406;2022-09-13T10:23:48;8.20;;;4.50;;
17830;SDS011;9040;51.332;12.406;2022-09-13T10:26:16;5.33;;;4.27;;
17830;SDS011;9040;51.332;12.406;2022-09-13T10:28:45;5.40;;;4.87;;
17830;SDS011;9040;51.332;12.406;2022-09-13T10:31:26;5.00;;;4.60;;
17830;SDS011;9040;51.332;12.406;2022-09-13T10:33:55;4.30;;;3.90;;
17830;SDS011;9040;51.332;12.406;2022-09-13T10:36:25;5.03;;;3.97;;
17830;SDS011;9040;51.332;12.406;2022-09-13T10:38:56;5.17;;;3.50;;
17830;SDS011;9040;51.332;12.406;2022-09-13T10:41:25;4.70;;;3.50;;
17830;SDS011;9040;51.332;12.406;2022-09-13T10:43:57;9.03;;;3.80;;
17830;SDS011;9040;51.332;12.406;2022-09-13T10:46:28;18.63;;;4.63;;
17830;SDS011;9040;51.332;12.406;2022-09-13T10:48:57;5.07;;;3.87;;
17830;SDS011;9040;51.332;12.406;2022-09-13T10:51:30;6.90;;;3.97;;
17830;SDS011;9040;51.332;12.406;2022-09-13T10:54:09;3.43;;;3.13;;
17830;SDS011;9040;51.332;12.406;2022-09-13T10:56:44;5.03;;;3.40;;
17830;SDS011;9040;51.332;12.406;2022-09-13T10:59:14;18.23;;;3.50;;
17830;SDS011;9040;51.332;12.406;2022-09-13T11:01:47;3.13;;;2.93;;
17830;SDS011;9040;51.332;12.406;2022-09-13T11:04:27;6.07;;;4.00;;
17830;SDS011;9040;51.332;12.406;2022-09-13T11:07:20;11.50;;;2.80;;
17830;SDS011;9040;51.332;12.406;2022-09-13T11:10:00;5.50;;;3.03;;
17830;SDS011;9040;51.332;12.406;2022-09-13T11:12:35;8.33;;;3.97;;
17830;SDS011;9040;51.332;12.406;2022-09-13T11:15:09;9.43;;;3.57;;
17830;SDS011;9040;51.332;12.406;2022-09-13T11:21:08;5.47;;;3.27;;
17830;SDS011;9040;51.332;12.406;2022-09-13T11:23:58;4.33;;;3.93;;
17830;SDS011;9040;51.332;12.406;2022-09-13T11:26:38;6.87;;;4.20;;
17830;SDS011;9040;51.332;12.406;2022-09-13T11:29:28;3.60;;;3.30;;
17830;SDS011;9040;51.332;12.406;2022-09-13T11:32:15;5.47;;;4.63;;
17830;SDS011;9040;51.332;12.406;2022-09-13T11:34:55;10.53;;;4.60;;
17830;SDS011;9040;51.332;12.406;2022-09-13T11:37:42;5.10;;;2.97;;
17830;SDS011;9040;51.332;12.406;2022-09-13T11:43:04;5.57;;;3.60;;
17830;SDS011;9040;51.332;12.406;2022-09-13T11:45:42;5.97;;;4.10;;
17830;SDS011;9040;51.332;12.406;2022-09-13T11:48:23;4.37;;;3.50;;
17830;SDS011;9040;51.332;12.406;2022-09-13T11:51:07;3.77;;;3.47;;
17830;SDS011;9040;51.332;12.406;2022-09-13T11:53:50;13.57;;;4.20;;
17830;SDS011;9040;51.332;12.406;2022-09-13T11:56:30;4.37;;;3.37;;
17830;SDS011;9040;51.332;12.406;2022-09-13T11:59:05;5.43;;;3.70;;
17830;SDS011;9040;51.332;12.406;2022-09-13T12:01:41;4.83;;;3.43;;
17830;SDS011;9040;51.332;12.406;2022-09-13T12:04:11;10.17;;;4.07;;
17830;SDS011;9040;51.332;12.406;2022-09-13T12:06:47;4.73;;;3.70;;
17830;SDS011;9040;51.332;12.406;2022-09-13T12:09:18;3.87;;;3.57;;
17830;SDS011;9040;51.332;12.406;2022-09-13T12:11:49;9.20;;;4.50;;
17830;SDS011;9040;51.332;12.406;2022-09-13T12:14:21;5.00;;;4.10;;
17830;SDS011;9040;51.332;12.406;2022-09-13T12:16:51;4.07;;;3.73;;
17830;SDS011;9040;51.332;12.406;2022-09-13T12:19:23;7.13;;;4.57;;
17830;SDS011;9040;51.332;12.406;2022-09-13T12:21:55;7.00;;;4.57;;
17830;SDS011;9040;51.332;12.406;2022-09-13T12:24:33;4.93;;;4.40;;
17830;SDS011;9040;51.332;12.406;2022-09-13T12:27:04;17.07;;;5.10;;
17830;SDS011;9040;51.332;12.406;2022-09-13T12:29:38;6.17;;;3.20;;
17830;SDS011;9040;51.332;12.406;2022-09-13T12:32:10;5.73;;;3.50;;
17830;SDS011;9040;51.332;12.406;2022-09-13T12:34:41;3.77;;;3.47;;
17830;SDS011;9040;51.332;12.406;2022-09-13T12:37:27;9.37;;;3.93;;
17830;SDS011;9040;51.332;12.406;2022-09-13T12:43:02;8.83;;;4.30;;
17830;SDS011;9040;51.332;12.406;2022-09-13T12:45:45;8.23;;;3.97;;
17830;SDS011;9040;51.332;12.406;2022-09-13T12:51:25;7.23;;;5.30;;
17830;SDS011;9040;51.332;12.406;2022-09-13T12:54:14;6.10;;;3.50;;
17830;SDS011;9040;51.332;12.406;2022-09-13T12:57:07;11.60;;;3.33;;
17830;SDS011;9040;51.332;12.406;2022-09-13T12:59:55;5.00;;;2.87;;
17830;SDS011;9040;51.332;12.406;2022-09-13T13:02:37;5.50;;;3.70;;
17830;SDS011;9040;51.332;12.406;2022-09-13T13:05:16;6.17;;;3.40;;
17830;SDS011;9040;51.332;12.406;2022-09-13T13:07:49;6.73;;;3.13;;
17830;SDS011;9040;51.332;12.406;2022-09-13T13:10:24;7.97;;;3.30;;
17830;SDS011;9040;51.332;12.406;2022-09-13T13:12:55;3.10;;;2.83;;
17830;SDS011;9040;51.332;12.406;2022-09-13T13:15:57;9.23;;;4.10;;
17830;SDS011;9040;51.332;12.406;2022-09-13T13:18:30;7.47;;;2.40;;
17830;SDS011;9040;51.332;12.406;2022-09-13T13:27:03;3.50;;;2.10;;
17830;SDS011;9040;51.332;12.406;2022-09-13T13:33:19;9.27;;;2.90;;
17830;SDS011;9040;51.332;12.406;2022-09-13T13:35:49;4.67;;;2.57;;
17830;SDS011;9040;51.332;12.406;2022-09-13T13:41:17;4.93;;;2.57;;
17830;SDS011;9040;51.332;12.406;2022-09-13T13:50:18;11.70;;;2.53;;
17830;SDS011;9040;51.332;12.406;2022-09-13T13:52:53;4.80;;;1.93;;
17830;SDS011;9040;51.332;12.406;2022-09-13T13:58:29;1.83;;;1.73;;
17830;SDS011;9040;51.332;12.406;2022-09-13T14:01:02;8.33;;;2.50;;
17830;SDS011;9040;51.332;12.406;2022-09-13T14:03:37;4.30;;;3.00;;
17830;SDS011;9040;51.332;12.406;2022-09-13T14:06:15;1.67;;;1.50;;
17830;SDS011;9040;51.332;12.406;2022-09-13T14:08:54;10.13;;;1.90;;
17830;SDS011;9040;51.332;12.406;2022-09-13T14:11:32;2.47;;;2.27;;
17830;SDS011;9040;51.332;12.406;2022-09-13T14:14:12;2.60;;;2.30;;
17830;SDS011;9040;51.332;12.406;2022-09-13T14:17:07;2.80;;;1.93;;
17830;SDS011;9040;51.332;12.406;2022-09-13T14:19:52;1.90;;;1.60;;
17830;SDS011;9040;51.332;12.406;2022-09-13T14:22:21;2.57;;;2.33;;
17830;SDS011;9040;51.332;12.406;2022-09-13T14:24:49;8.20;;;2.70;;
17830;SDS011;9040;51.332;12.406;2022-09-13T14:27:18;3.00;;;2.43;;
17830;SDS011;9040;51.332;12.406;2022-09-13T14:29:48;4.73;;;3.50;;
17830;SDS011;9040;51.332;12.406;2022-09-13T14:32:18;3.73;;;2.37;;
17830;SDS011;9040;51.332;12.406;2022-09-13T14:34:59;2.93;;;1.97;;
17830;SDS011;9040;51.332;12.406;2022-09-13T14:37:28;3.03;;;2.73;;
17830;SDS011;9040;51.332;12.406;2022-09-13T14:39:58;3.83;;;1.93;;
17830;SDS011;9040;51.332;12.406;2022-09-13T14:42:36;2.90;;;2.23;;
17830;SDS011;9040;51.332;12.406;2022-09-13T14:45:04;11.37;;;4.10;;
17830;SDS011;9040;51.332;12.406;2022-09-13T14:47:37;4.80;;;2.40;;
17830;SDS011;9040;51.332;12.406;2022-09-13T14:50:15;3.23;;;1.73;;
17830;SDS011;9040;51.332;12.406;2022-09-13T14:52:46;5.33;;;2.20;;
17830;SDS011;9040;51.332;12.406;2022-09-13T14:55:15;3.47;;;1.57;;
17830;SDS011;9040;51.332;12.406;2022-09-13T14:57:45;7.23;;;3.40;;
17830;SDS011;9040;51.332;12.406;2022-09-13T15:00:17;4.33;;;2.17;;
17830;SDS011;9040;51.332;12.406;2022-09-13T15:02:47;3.33;;;2.40;;
17830;SDS011;9040;51.332;12.406;2022-09-13T15:05:16;6.40;;;2.80;;
17830;SDS011;9040;51.332;12.406;2022-09-13T15:07:46;6.30;;;3.10;;
17830;SDS011;9040;51.332;12.406;2022-09-13T15:10:20;5.63;;;2.37;;
17830;SDS011;9040;51.332;12.406;2022-09-13T15:12:51;4.93;;;2.40;;
17830;SDS011;9040;51.332;12.406;2022-09-13T15:15:24;4.13;;;2.17;;
17830;SDS011;9040;51.332;12.406;2022-09-13T15:17:57;4.90;;;2.13;;
17830;SDS011;9040;51.332;12.406;2022-09-13T15:20:27;3.83;;;2.30;;
17830;SDS011;9040;51.332;12.406;2022-09-13T15:22:55;4.97;;;2.00;;
17830;SDS011;9040;51.332;12.406;2022-09-13T15:25:23;4.83;;;3.60;;
17830;SDS011;9040;51.332;12.406;2022-09-13T15:27:52;6.17;;;3.00;;
17830;SDS011;9040;51.332;12.406;2022-09-13T15:30:22;6.13;;;3.00;;
17830;SDS011;9040;51.332;12.406;2022-09-13T15:33:04;3.20;;;2.50;;
17830;SDS011;9040;51.332;12.406;2022-09-13T15:35:41;11.93;;;3.27;;
17830;SDS011;9040;51.332;12.406;2022-09-13T15:38:16;11.77;;;3.27;;
17830;SDS011;9040;51.332;12.406;2022-09-13T15:40:47;4.30;;;2.50;;
17830;SDS011;9040;51.332;12.406;2022-09-13T15:43:24;4.10;;;1.70;;
17830;SDS011;9040;51.332;12.406;2022-09-13T15:45:51;13.73;;;3.87;;
17830;SDS011;9040;51.332;12.406;2022-09-13T15:48:20;6.63;;;4.77;;
17830;SDS011;9040;51.332;12.406;2022-09-13T15:51:03;5.93;;;5.03;;
17830;SDS011;9040;51.332;12.406;2022-09-13T15:53:32;8.27;;;5.87;;
17830;SDS011;9040;51.332;12.406;2022-09-13T15:55:59;12.60;;;6.60;;